sensor_id;sensor_type;location;lat;lon;timestamp;pressure;altitude;pressure_sealevel;temperature;humidity
50484;BME280;36409;52.168;20.878;2023-04-06T00:01:39;101097.92;;;0.74;55.21
50484;BME280;36409;52.168;20.878;2023-04-06T00:04:08;101092.73;;;0.73;55.25
50484;BME280;36409;52.168;20.878;2023-04-06T00:06:37;101087.52;;;0.71;54.93
50484;BME280;36409;52.168;20.878;2023-04-06T00:09:07;101084.95;;;0.71;54.84
50484;BME280;36409;52.168;20.878;2023-04-06T00:11:36;101084.91;;;0.70;55.16
50484;BME280;36409;52.168;20.878;2023-04-06T00:14:05;101089.15;;;0.69;55.06
50484;BME280;36409;52.168;20.878;2023-04-06T00:16:34;101084.83;;;0.68;54.99
50484;BME280;36409;52.168;20.878;2023-04-06T00:19:03;101087.39;;;0.68;55.32
50484;BME280;36409;52.168;20.878;2023-04-06T00:21:31;101077.97;;;0.67;54.78
50484;BME280;36409;52.168;20.878;2023-04-06T00:24:01;101085.67;;;0.67;55.73
50484;BME280;36409;52.168;20.878;2023-04-06T00:26:29;101081.39;;;0.68;55.02
50484;BME280;36409;52.168;20.878;2023-04-06T00:28:58;101079.64;;;0.67;55.42
50484;BME280;36409;52.168;20.878;2023-04-06T00:31:27;101077.97;;;0.67;55.66
50484;BME280;36409;52.168;20.878;2023-04-06T00:33:57;101071.11;;;0.68;54.71
50484;BME280;36409;52.168;20.878;2023-04-06T00:36:26;101073.69;;;0.68;55.34
50484;BME280;36409;52.168;20.878;2023-04-06T00:38:55;101070.25;;;0.67;54.76
50484;BME280;36409;52.168;20.878;2023-04-06T00:41:24;101072.87;;;0.69;54.74
50484;BME280;36409;52.168;20.878;2023-04-06T00:43:54;101066.84;;;0.68;55.05
50484;BME280;36409;52.168;20.878;2023-04-06T00:46:23;101066.84;;;0.68;55.42
50484;BME280;36409;52.168;20.878;2023-04-06T00:48:52;101072.05;;;0.70;55.63
50484;BME280;36409;52.168;20.878;2023-04-06T00:51:21;101066.84;;;0.68;54.90
50484;BME280;36409;52.168;20.878;2023-04-06T00:53:54;101065.16;;;0.69;54.98
50484;BME280;36409;52.168;20.878;2023-04-06T00:56:24;101062.59;;;0.69;55.52
50484;BME280;36409;52.168;20.878;2023-04-06T00:58:55;101062.59;;;0.69;55.82
50484;BME280;36409;52.168;20.878;2023-04-06T01:01:24;101062.59;;;0.69;54.82
50484;BME280;36409;52.168;20.878;2023-04-06T01:03:55;101067.77;;;0.70;55.16
50484;BME280;36409;52.168;20.878;2023-04-06T01:06:24;101063.45;;;0.69;55.29
50484;BME280;36409;52.168;20.878;2023-04-06T01:09:01;101054.92;;;0.70;55.80
50484;BME280;36409;52.168;20.878;2023-04-06T01:11:30;101048.92;;;0.70;55.39
50484;BME280;36409;52.168;20.878;2023-04-06T01:13:59;101048.97;;;0.71;54.95
50484;BME280;36409;52.168;20.878;2023-04-06T01:16:44;101055.81;;;0.71;55.48
50484;BME280;36409;52.168;20.878;2023-04-06T01:19:20;101055.00;;;0.72;55.43
50484;BME280;36409;52.168;20.878;2023-04-06T01:21:52;101049.86;;;0.72;55.67
50484;BME280;36409;52.168;20.878;2023-04-06T01:24:44;101043.83;;;0.71;55.45
50484;BME280;36409;52.168;20.878;2023-04-06T01:27:17;101049.05;;;0.73;54.85
50484;BME280;36409;52.168;20.878;2023-04-06T01:30:06;101040.44;;;0.72;55.99
50484;BME280;36409;52.168;20.878;2023-04-06T01:33:00;101035.26;;;0.71;55.84
50484;BME280;36409;52.168;20.878;2023-04-06T01:35:51;101042.97;;;0.71;54.85
50484;BME280;36409;52.168;20.878;2023-04-06T01:38:22;101038.69;;;0.71;55.00
50484;BME280;36409;52.168;20.878;2023-04-06T01:40:51;101036.07;;;0.70;55.40
50484;BME280;36409;52.168;20.878;2023-04-06T01:43:21;101039.50;;;0.70;55.03
50484;BME280;36409;52.168;20.878;2023-04-06T01:46:13;101038.64;;;0.70;55.38
50484;BME280;36409;52.168;20.878;2023-04-06T01:48:43;101042.89;;;0.69;54.98
50484;BME280;36409;52.168;20.878;2023-04-06T01:51:38;101032.61;;;0.69;55.35
50484;BME280;36409;52.168;20.878;2023-04-06T01:54:11;101035.18;;;0.69;55.80
50484;BME280;36409;52.168;20.878;2023-04-06T01:57:16;101030.00;;;0.68;55.35
50484;BME280;36409;52.168;20.878;2023-04-06T01:59:49;101025.72;;;0.68;55.03
50484;BME280;36409;52.168;20.878;2023-04-06T02:02:30;101021.42;;;0.67;55.47
50484;BME280;36409;52.168;20.878;2023-04-06T02:05:02;101026.66;;;0.70;55.69
50484;BME280;36409;52.168;20.878;2023-04-06T02:07:32;101028.36;;;0.70;55.52
50484;BME280;36409;52.168;20.878;2023-04-06T02:10:01;101013.77;;;0.69;55.42
50484;BME280;36409;52.168;20.878;2023-04-06T02:12:37;101017.19;;;0.69;55.73
50484;BME280;36409;52.168;20.878;2023-04-06T02:15:09;101018.86;;;0.67;56.20
50484;BME280;36409;52.168;20.878;2023-04-06T02:17:38;101011.14;;;0.67;55.18
50484;BME280;36409;52.168;20.878;2023-04-06T02:20:08;101011.14;;;0.67;56.04
50484;BME280;36409;52.168;20.878;2023-04-06T02:22:37;101013.72;;;0.67;55.89
50484;BME280;36409;52.168;20.878;2023-04-06T02:25:07;101011.06;;;0.66;55.68
50484;BME280;36409;52.168;20.878;2023-04-06T02:27:37;101017.03;;;0.65;55.96
50484;BME280;36409;52.168;20.878;2023-04-06T02:30:09;101002.42;;;0.64;56.23
50484;BME280;36409;52.168;20.878;2023-04-06T02:32:38;101011.84;;;0.63;56.09
50484;BME280;36409;52.168;20.878;2023-04-06T02:35:09;101007.52;;;0.62;56.16
50484;BME280;36409;52.168;20.878;2023-04-06T02:37:38;100998.88;;;0.60;56.47
50484;BME280;36409;52.168;20.878;2023-04-06T02:40:10;101005.72;;;0.59;56.51
50484;BME280;36409;52.168;20.878;2023-04-06T02:42:39;101002.98;;;0.55;55.48
50484;BME280;36409;52.168;20.878;2023-04-06T02:45:09;101001.23;;;0.54;56.50
50484;BME280;36409;52.168;20.878;2023-04-06T02:47:43;101000.30;;;0.52;56.10
50484;BME280;36409;52.168;20.878;2023-04-06T02:50:12;100994.22;;;0.50;56.00
50484;BME280;36409;52.168;20.878;2023-04-06T02:52:49;101000.17;;;0.49;56.02
50484;BME280;36409;52.168;20.878;2023-04-06T02:55:18;100994.05;;;0.45;55.80
50484;BME280;36409;52.168;20.878;2023-04-06T02:57:50;101004.28;;;0.43;56.18
50484;BME280;36409;52.168;20.878;2023-04-06T03:00:21;100998.20;;;0.41;56.45
50484;BME280;36409;52.168;20.878;2023-04-06T03:02:50;101008.40;;;0.40;56.93
50484;BME280;36409;52.168;20.878;2023-04-06T03:05:20;100999.79;;;0.38;56.27
50484;BME280;36409;52.168;20.878;2023-04-06T03:07:49;101006.60;;;0.37;56.49
50484;BME280;36409;52.168;20.878;2023-04-06T03:10:27;101009.05;;;0.34;57.03
50484;BME280;36409;52.168;20.878;2023-04-06T03:12:56;101003.91;;;0.34;57.25
50484;BME280;36409;52.168;20.878;2023-04-06T03:15:42;101015.84;;;0.32;56.83
50484;BME280;36409;52.168;20.878;2023-04-06T03:18:17;101002.06;;;0.30;56.70
50484;BME280;36409;52.168;20.878;2023-04-06T03:20:48;101009.69;;;0.28;56.54
50484;BME280;36409;52.168;20.878;2023-04-06T03:23:18;101007.08;;;0.27;57.30
50484;BME280;36409;52.168;20.878;2023-04-06T03:25:51;101013.92;;;0.26;57.03
50484;BME280;36409;52.168;20.878;2023-04-06T03:28:21;101011.27;;;0.25;57.04
50484;BME280;36409;52.168;20.878;2023-04-06T03:30:56;101009.47;;;0.22;56.75
50484;BME280;36409;52.168;20.878;2023-04-06T03:33:41;101011.99;;;0.21;56.96
50484;BME280;36409;52.168;20.878;2023-04-06T03:36:14;101017.94;;;0.20;57.34
50484;BME280;36409;52.168;20.878;2023-04-06T03:38:44;101014.43;;;0.18;57.06
50484;BME280;36409;52.168;20.878;2023-04-06T03:41:16;101014.39;;;0.16;56.75
50484;BME280;36409;52.168;20.878;2023-04-06T03:43:52;101015.93;;;0.12;57.70
50484;BME280;36409;52.168;20.878;2023-04-06T03:46:21;101009.89;;;0.10;57.13
50484;BME280;36409;52.168;20.878;2023-04-06T03:48:55;101010.58;;;0.06;57.69
50484;BME280;36409;52.168;20.878;2023-04-06T03:51:25;101013.95;;;0.05;57.82
50484;BME280;36409;52.168;20.878;2023-04-06T03:53:54;101008.69;;;0.02;57.96
50484;BME280;36409;52.168;20.878;2023-04-06T03:56:23;101011.21;;;0.01;57.63
50484;BME280;36409;52.168;20.878;2023-04-06T03:58:52;101009.41;;;-0.02;57.52
50484;BME280;36409;52.168;20.878;2023-04-06T04:01:22;101008.47;;;-0.04;57.84
50484;BME280;36409;52.168;20.878;2023-04-06T04:03:52;101010.09;;;-0.06;58.19
50484;BME280;36409;52.168;20.878;2023-04-06T04:06:22;101015.17;;;-0.08;57.66
50484;BME280;36409;52.168;20.878;2023-04-06T04:08:51;101011.72;;;-0.08;57.62
50484;BME280;36409;52.168;20.878;2023-04-06T04:11:20;101011.66;;;-0.10;57.75
50484;BME280;36409;52.168;20.878;2023-04-06T04:13:52;101015.09;;;-0.09;57.91
50484;BME280;36409;52.168;20.878;2023-04-06T04:16:21;101008.20;;;-0.10;57.85
50484;BME280;36409;52.168;20.878;2023-04-06T04:18:50;101010.86;;;-0.09;58.31
50484;BME280;36409;52.168;20.878;2023-04-06T04:21:19;101010.09;;;-0.06;58.10
50484;BME280;36409;52.168;20.878;2023-04-06T04:23:48;101005.00;;;-0.05;58.51
50484;BME280;36409;52.168;20.878;2023-04-06T04:26:18;101006.84;;;-0.02;58.64
50484;BME280;36409;52.168;20.878;2023-04-06T04:28:47;101006.08;;;0.01;58.02
50484;BME280;36409;52.168;20.878;2023-04-06T04:31:18;101001.88;;;0.03;58.68
50484;BME280;36409;52.168;20.878;2023-04-06T04:33:50;101003.69;;;0.05;58.59
50484;BME280;36409;52.168;20.878;2023-04-06T04:36:25;101008.95;;;0.08;58.47
50484;BME280;36409;52.168;20.878;2023-04-06T04:38:55;101004.80;;;0.12;58.71
50484;BME280;36409;52.168;20.878;2023-04-06T04:41:24;101000.53;;;0.12;58.82
50484;BME280;36409;52.168;20.878;2023-04-06T04:43:54;100999.80;;;0.15;58.29
50484;BME280;36409;52.168;20.878;2023-04-06T04:46:24;100992.18;;;0.18;58.71
50484;BME280;36409;52.168;20.878;2023-04-06T04:48:54;100994.02;;;0.21;58.40
50484;BME280;36409;52.168;20.878;2023-04-06T04:51:23;100991.50;;;0.22;58.40
50484;BME280;36409;52.168;20.878;2023-04-06T04:54:12;100994.19;;;0.25;58.86
50484;BME280;36409;52.168;20.878;2023-04-06T04:56:43;100988.28;;;0.28;59.21
50484;BME280;36409;52.168;20.878;2023-04-06T04:59:39;100988.45;;;0.33;58.58
50484;BME280;36409;52.168;20.878;2023-04-06T05:02:18;100990.33;;;0.37;59.00
50484;BME280;36409;52.168;20.878;2023-04-06T05:04:58;100985.28;;;0.40;58.78
50484;BME280;36409;52.168;20.878;2023-04-06T05:07:28;100991.44;;;0.43;58.67
50484;BME280;36409;52.168;20.878;2023-04-06T05:09:57;100983.89;;;0.48;59.34
50484;BME280;36409;52.168;20.878;2023-04-06T05:12:28;100988.22;;;0.49;58.76
50484;BME280;36409;52.168;20.878;2023-04-06T05:15:13;100984.92;;;0.53;59.02
50484;BME280;36409;52.168;20.878;2023-04-06T05:17:50;100994.46;;;0.56;59.23
50484;BME280;36409;52.168;20.878;2023-04-06T05:20:23;100988.47;;;0.57;58.86
50484;BME280;36409;52.168;20.878;2023-04-06T05:22:53;100990.23;;;0.58;59.44
50484;BME280;36409;52.168;20.878;2023-04-06T05:25:22;100981.70;;;0.59;59.41
50484;BME280;36409;52.168;20.878;2023-04-06T05:27:55;100985.09;;;0.58;59.73
50484;BME280;36409;52.168;20.878;2023-04-06T05:30:32;100986.75;;;0.56;59.34
50484;BME280;36409;52.168;20.878;2023-04-06T05:33:04;100995.32;;;0.56;59.94
50484;BME280;36409;52.168;20.878;2023-04-06T05:35:44;100989.41;;;0.59;59.94
50484;BME280;36409;52.168;20.878;2023-04-06T05:38:14;100990.52;;;0.66;60.10
50484;BME280;36409;52.168;20.878;2023-04-06T05:40:44;100986.52;;;0.74;59.36
50484;BME280;36409;52.168;20.878;2023-04-06T05:43:16;100983.52;;;0.86;59.31
50484;BME280;36409;52.168;20.878;2023-04-06T05:45:48;100985.70;;;0.99;59.56
50484;BME280;36409;52.168;20.878;2023-04-06T05:48:17;100976.82;;;1.15;59.70
50484;BME280;36409;52.168;20.878;2023-04-06T05:50:49;100979.03;;;1.30;59.15
50484;BME280;36409;52.168;20.878;2023-04-06T05:53:19;100970.83;;;1.42;59.22
50484;BME280;36409;52.168;20.878;2023-04-06T05:55:54;100973.63;;;1.48;59.42
50484;BME280;36409;52.168;20.878;2023-04-06T05:58:23;100967.02;;;1.57;59.59
50484;BME280;36409;52.168;20.878;2023-04-06T06:00:57;100964.98;;;1.74;59.50
50484;BME280;36409;52.168;20.878;2023-04-06T06:03:29;100967.22;;;1.90;58.65
50484;BME280;36409;52.168;20.878;2023-04-06T06:06:02;100971.13;;;2.06;59.55
50484;BME280;36409;52.168;20.878;2023-04-06T06:09:07;100968.23;;;2.24;59.32
50484;BME280;36409;52.168;20.878;2023-04-06T06:11:40;100966.88;;;2.37;58.61
50484;BME280;36409;52.168;20.878;2023-04-06T06:14:11;100963.83;;;2.51;58.87
50484;BME280;36409;52.168;20.878;2023-04-06T06:16:41;100959.02;;;2.63;58.85
50484;BME280;36409;52.168;20.878;2023-04-06T06:19:11;100958.50;;;2.76;58.89
50484;BME280;36409;52.168;20.878;2023-04-06T06:21:40;100957.17;;;2.91;59.00
50484;BME280;36409;52.168;20.878;2023-04-06T06:24:11;100952.80;;;3.22;57.63
50484;BME280;36409;52.168;20.878;2023-04-06T06:26:40;100957.12;;;3.58;57.48
50484;BME280;36409;52.168;20.878;2023-04-06T06:29:10;100955.20;;;3.86;57.49
50484;BME280;36409;52.168;20.878;2023-04-06T06:31:39;100959.08;;;4.05;58.19
50484;BME280;36409;52.168;20.878;2023-04-06T06:34:09;100953.02;;;4.05;57.53
50484;BME280;36409;52.168;20.878;2023-04-06T06:36:38;100956.31;;;3.97;57.72
50484;BME280;36409;52.168;20.878;2023-04-06T06:39:10;100953.63;;;3.93;57.54
50484;BME280;36409;52.168;20.878;2023-04-06T06:41:40;100947.77;;;4.01;57.30
50484;BME280;36409;52.168;20.878;2023-04-06T06:44:10;100941.87;;;4.07;56.47
50484;BME280;36409;52.168;20.878;2023-04-06T06:46:39;100943.95;;;4.24;57.14
50484;BME280;36409;52.168;20.878;2023-04-06T06:49:09;100944.72;;;4.20;56.60
50484;BME280;36409;52.168;20.878;2023-04-06T06:51:40;100942.59;;;4.00;55.93
50484;BME280;36409;52.168;20.878;2023-04-06T06:54:09;100940.73;;;3.94;56.71
50484;BME280;36409;52.168;20.878;2023-04-06T06:56:38;100941.59;;;3.95;56.86
50484;BME280;36409;52.168;20.878;2023-04-06T06:59:08;100934.73;;;3.95;56.81
50484;BME280;36409;52.168;20.878;2023-04-06T07:01:37;100932.08;;;3.92;56.81
50484;BME280;36409;52.168;20.878;2023-04-06T07:04:07;100938.18;;;3.96;56.22
50484;BME280;36409;52.168;20.878;2023-04-06T07:06:37;100941.58;;;3.93;55.93
50484;BME280;36409;52.168;20.878;2023-04-06T07:09:09;100936.23;;;3.85;56.06
50484;BME280;36409;52.168;20.878;2023-04-06T07:11:38;100940.62;;;3.88;55.73
50484;BME280;36409;52.168;20.878;2023-04-06T07:14:07;100933.38;;;4.13;56.38
50484;BME280;36409;52.168;20.878;2023-04-06T07:16:36;100937.15;;;4.29;55.73
50484;BME280;36409;52.168;20.878;2023-04-06T07:19:09;100935.75;;;4.45;55.97
50484;BME280;36409;52.168;20.878;2023-04-06T07:21:38;100930.58;;;4.45;55.64
50484;BME280;36409;52.168;20.878;2023-04-06T07:24:14;100939.13;;;4.41;55.56
50484;BME280;36409;52.168;20.878;2023-04-06T07:26:44;100926.14;;;4.38;54.70
50484;BME280;36409;52.168;20.878;2023-04-06T07:29:17;100929.48;;;4.33;54.84
50484;BME280;36409;52.168;20.878;2023-04-06T07:31:47;100924.53;;;4.43;55.21
50484;BME280;36409;52.168;20.878;2023-04-06T07:34:17;100925.37;;;4.42;54.85
50484;BME280;36409;52.168;20.878;2023-04-06T07:36:46;100933.03;;;4.37;54.29
50484;BME280;36409;52.168;20.878;2023-04-06T07:39:18;100933.73;;;4.30;54.84
50484;BME280;36409;52.168;20.878;2023-04-06T07:41:47;100928.95;;;4.48;55.21
50484;BME280;36409;52.168;20.878;2023-04-06T07:44:17;100929.28;;;4.66;54.87
50484;BME280;36409;52.168;20.878;2023-04-06T07:46:47;100924.13;;;4.67;55.15
50484;BME280;36409;52.168;20.878;2023-04-06T07:49:17;100924.98;;;4.68;54.43
50484;BME280;36409;52.168;20.878;2023-04-06T07:51:46;100923.20;;;4.63;54.77
50484;BME280;36409;52.168;20.878;2023-04-06T07:54:17;100927.31;;;4.54;54.49
50484;BME280;36409;52.168;20.878;2023-04-06T07:56:47;100919.47;;;4.49;55.12
50484;BME280;36409;52.168;20.878;2023-04-06T07:59:17;100919.29;;;4.40;54.97
50484;BME280;36409;52.168;20.878;2023-04-06T08:01:46;100915.70;;;4.33;55.16
50484;BME280;36409;52.168;20.878;2023-04-06T08:04:17;100913.96;;;4.32;54.42
50484;BME280;36409;52.168;20.878;2023-04-06T08:06:46;100916.55;;;4.32;54.86
50484;BME280;36409;52.168;20.878;2023-04-06T08:09:18;100923.39;;;4.30;54.84
50484;BME280;36409;52.168;20.878;2023-04-06T08:11:47;100920.06;;;4.36;55.21
50484;BME280;36409;52.168;20.878;2023-04-06T08:14:17;100916.53;;;4.30;54.87
50484;BME280;36409;52.168;20.878;2023-04-06T08:16:46;100919.11;;;4.30;54.93
50484;BME280;36409;52.168;20.878;2023-04-06T08:19:17;100913.05;;;4.30;54.47
50484;BME280;36409;52.168;20.878;2023-04-06T08:21:47;100911.61;;;4.43;55.39
50484;BME280;36409;52.168;20.878;2023-04-06T08:24:16;100910.89;;;4.52;55.00
50484;BME280;36409;52.168;20.878;2023-04-06T08:26:45;100911.78;;;4.52;55.28
50484;BME280;36409;52.168;20.878;2023-04-06T08:29:18;100905.55;;;4.42;54.61
50484;BME280;36409;52.168;20.878;2023-04-06T08:31:47;100920.04;;;4.34;55.52
50484;BME280;36409;52.168;20.878;2023-04-06T08:34:17;100911.30;;;4.29;54.79
50484;BME280;36409;52.168;20.878;2023-04-06T08:36:46;100916.27;;;4.18;55.22
50484;BME280;36409;52.168;20.878;2023-04-06T08:39:17;100901.61;;;4.17;55.23
50484;BME280;36409;52.168;20.878;2023-04-06T08:41:52;100902.47;;;4.17;55.42
50484;BME280;36409;52.168;20.878;2023-04-06T08:44:25;100906.01;;;4.21;55.26
50484;BME280;36409;52.168;20.878;2023-04-06T08:46:55;100903.38;;;4.20;55.57
50484;BME280;36409;52.168;20.878;2023-04-06T08:49:24;100908.54;;;4.20;55.62
50484;BME280;36409;52.168;20.878;2023-04-06T08:51:56;100904.28;;;4.22;55.18
50484;BME280;36409;52.168;20.878;2023-04-06T08:54:27;100907.54;;;4.13;54.90
50484;BME280;36409;52.168;20.878;2023-04-06T08:56:56;100911.48;;;3.95;54.97
50484;BME280;36409;52.168;20.878;2023-04-06T08:59:29;100904.23;;;3.79;55.28
50484;BME280;36409;52.168;20.878;2023-04-06T09:02:00;100898.86;;;3.69;55.59
50484;BME280;36409;52.168;20.878;2023-04-06T09:04:33;100900.53;;;3.67;55.89
50484;BME280;36409;52.168;20.878;2023-04-06T09:07:04;100900.41;;;3.61;56.68
50484;BME280;36409;52.168;20.878;2023-04-06T09:09:33;100902.05;;;3.58;55.78
50484;BME280;36409;52.168;20.878;2023-04-06T09:12:02;100898.40;;;3.49;56.89
50484;BME280;36409;52.168;20.878;2023-04-06T09:14:37;100897.44;;;3.44;56.22
50484;BME280;36409;52.168;20.878;2023-04-06T09:17:07;100895.77;;;3.46;57.21
50484;BME280;36409;52.168;20.878;2023-04-06T09:19:46;100891.34;;;3.40;56.89
50484;BME280;36409;52.168;20.878;2023-04-06T09:22:18;100894.77;;;3.41;56.78
50484;BME280;36409;52.168;20.878;2023-04-06T09:24:50;100884.24;;;3.32;56.96
50484;BME280;36409;52.168;20.878;2023-04-06T09:27:30;100885.08;;;3.31;56.94
50484;BME280;36409;52.168;20.878;2023-04-06T09:30:06;100883.48;;;3.36;57.14
50484;BME280;36409;52.168;20.878;2023-04-06T09:32:49;100888.70;;;3.39;58.08
50484;BME280;36409;52.168;20.878;2023-04-06T09:35:21;100873.92;;;3.32;57.56
50484;BME280;36409;52.168;20.878;2023-04-06T09:37:51;100874.75;;;3.31;57.82
50484;BME280;36409;52.168;20.878;2023-04-06T09:40:23;100879.05;;;3.30;57.91
50484;BME280;36409;52.168;20.878;2023-04-06T09:42:52;100867.82;;;3.28;57.89
50484;BME280;36409;52.168;20.878;2023-04-06T09:45:26;100867.76;;;3.27;58.88
50484;BME280;36409;52.168;20.878;2023-04-06T09:47:58;100866.88;;;3.24;58.53
50484;BME280;36409;52.168;20.878;2023-04-06T09:50:29;100868.38;;;3.16;58.36
50484;BME280;36409;52.168;20.878;2023-04-06T09:52:59;100868.16;;;3.07;58.18
50484;BME280;36409;52.168;20.878;2023-04-06T09:55:33;100862.70;;;2.94;58.69
50484;BME280;36409;52.168;20.878;2023-04-06T09:58:03;100867.48;;;2.79;58.88
50484;BME280;36409;52.168;20.878;2023-04-06T10:00:40;100858.38;;;2.58;58.46
50484;BME280;36409;52.168;20.878;2023-04-06T10:03:17;100850.13;;;2.40;58.75
50484;BME280;36409;52.168;20.878;2023-04-06T10:05:54;100866.20;;;2.31;59.02
50484;BME280;36409;52.168;20.878;2023-04-06T10:08:29;100866.88;;;2.24;59.32
50484;BME280;36409;52.168;20.878;2023-04-06T10:11:12;100863.31;;;2.19;60.41
50484;BME280;36409;52.168;20.878;2023-04-06T10:13:49;100861.47;;;2.14;60.94
50484;BME280;36409;52.168;20.878;2023-04-06T10:16:18;100852.95;;;2.17;60.17
50484;BME280;36409;52.168;20.878;2023-04-06T10:18:52;100846.05;;;2.16;61.12
50484;BME280;36409;52.168;20.878;2023-04-06T10:21:25;100854.70;;;2.18;61.11
50484;BME280;36409;52.168;20.878;2023-04-06T10:23:59;100841.02;;;2.21;60.53
50484;BME280;36409;52.168;20.878;2023-04-06T10:26:31;100848.72;;;2.19;61.10
50484;BME280;36409;52.168;20.878;2023-04-06T10:29:04;100842.73;;;2.20;61.97
50484;BME280;36409;52.168;20.878;2023-04-06T10:31:39;100851.20;;;2.16;61.62
50484;BME280;36409;52.168;20.878;2023-04-06T10:34:08;100840.64;;;2.07;61.79
50484;BME280;36409;52.168;20.878;2023-04-06T10:36:40;100837.84;;;1.99;61.70
50484;BME280;36409;52.168;20.878;2023-04-06T10:39:09;100834.31;;;1.95;61.86
50484;BME280;36409;52.168;20.878;2023-04-06T10:41:42;100828.31;;;1.95;62.39
50484;BME280;36409;52.168;20.878;2023-04-06T10:44:20;100824.91;;;1.96;62.77
50484;BME280;36409;52.168;20.878;2023-04-06T10:46:57;100814.61;;;1.96;62.69
50484;BME280;36409;52.168;20.878;2023-04-06T10:49:28;100820.70;;;1.99;63.11
50484;BME280;36409;52.168;20.878;2023-04-06T10:51:57;100820.73;;;2.01;62.36
50484;BME280;36409;52.168;20.878;2023-04-06T10:54:27;100819.05;;;2.02;63.00
50484;BME280;36409;52.168;20.878;2023-04-06T10:56:57;100817.25;;;1.99;63.50
50484;BME280;36409;52.168;20.878;2023-04-06T10:59:29;100809.39;;;1.94;63.00
50484;BME280;36409;52.168;20.878;2023-04-06T11:01:58;100807.64;;;1.93;63.12
50484;BME280;36409;52.168;20.878;2023-04-06T11:04:27;100805.13;;;1.95;63.87
50484;BME280;36409;52.168;20.878;2023-04-06T11:06:59;100806.88;;;1.96;63.22
50484;BME280;36409;52.168;20.878;2023-04-06T11:09:29;100805.99;;;1.95;63.35
50484;BME280;36409;52.168;20.878;2023-04-06T11:11:59;100800.94;;;1.98;64.12
50484;BME280;36409;52.168;20.878;2023-04-06T11:14:31;100801.06;;;2.03;63.53
50484;BME280;36409;52.168;20.878;2023-04-06T11:17:00;100796.06;;;2.09;64.43
50484;BME280;36409;52.168;20.878;2023-04-06T11:19:29;100794.53;;;2.16;63.94
50484;BME280;36409;52.168;20.878;2023-04-06T11:22:07;100792.08;;;2.21;64.56
50484;BME280;36409;52.168;20.878;2023-04-06T11:24:36;100795.66;;;2.26;63.88
50484;BME280;36409;52.168;20.878;2023-04-06T11:27:05;100791.42;;;2.28;64.74
50484;BME280;36409;52.168;20.878;2023-04-06T11:29:35;100788.05;;;2.30;65.07
50484;BME280;36409;52.168;20.878;2023-04-06T11:32:06;100787.20;;;2.30;64.13
50484;BME280;36409;52.168;20.878;2023-04-06T11:34:38;100787.96;;;2.27;64.72
50484;BME280;36409;52.168;20.878;2023-04-06T11:37:09;100786.19;;;2.25;64.68
50484;BME280;36409;52.168;20.878;2023-04-06T11:39:39;100777.52;;;2.21;64.79
50484;BME280;36409;52.168;20.878;2023-04-06T11:42:11;100779.25;;;2.22;64.91
50484;BME280;36409;52.168;20.878;2023-04-06T11:44:45;100773.30;;;2.25;65.46
50484;BME280;36409;52.168;20.878;2023-04-06T11:47:20;100775.14;;;2.29;64.83
50484;BME280;36409;52.168;20.878;2023-04-06T11:50:04;100767.44;;;2.30;64.93
50484;BME280;36409;52.168;20.878;2023-04-06T11:52:34;100772.56;;;2.29;64.73
50484;BME280;36409;52.168;20.878;2023-04-06T11:55:12;100768.89;;;2.21;64.96
50484;BME280;36409;52.168;20.878;2023-04-06T11:57:42;100765.34;;;2.15;64.80
50484;BME280;36409;52.168;20.878;2023-04-06T12:00:13;100758.44;;;2.14;65.65
50484;BME280;36409;52.168;20.878;2023-04-06T12:02:46;100760.09;;;2.12;65.93
50484;BME280;36409;52.168;20.878;2023-04-06T12:05:17;100765.16;;;2.09;65.73
50484;BME280;36409;52.168;20.878;2023-04-06T12:07:46;100757.41;;;2.08;65.62
50484;BME280;36409;52.168;20.878;2023-04-06T12:10:15;100744.52;;;2.08;65.98
50484;BME280;36409;52.168;20.878;2023-04-06T12:12:46;100745.47;;;2.11;66.57
50484;BME280;36409;52.168;20.878;2023-04-06T12:15:15;100747.25;;;2.14;66.35
50484;BME280;36409;52.168;20.878;2023-04-06T12:17:46;100736.11;;;2.15;66.10
50484;BME280;36409;52.168;20.878;2023-04-06T12:20:15;100742.27;;;2.20;66.27
50484;BME280;36409;52.168;20.878;2023-04-06T12:22:54;100733.72;;;2.21;66.97
50484;BME280;36409;52.168;20.878;2023-04-06T12:25:23;100723.41;;;2.21;66.15
50484;BME280;36409;52.168;20.878;2023-04-06T12:27:53;100726.02;;;2.23;65.98
50484;BME280;36409;52.168;20.878;2023-04-06T12:30:22;100720.92;;;2.24;67.02
50484;BME280;36409;52.168;20.878;2023-04-06T12:32:51;100715.00;;;2.28;67.25
50484;BME280;36409;52.168;20.878;2023-04-06T12:35:21;100714.25;;;2.33;67.40
50484;BME280;36409;52.168;20.878;2023-04-06T12:37:49;100720.34;;;2.36;67.32
50484;BME280;36409;52.168;20.878;2023-04-06T12:40:19;100724.76;;;2.40;66.54
50484;BME280;36409;52.168;20.878;2023-04-06T12:42:48;100729.94;;;2.42;66.74
50484;BME280;36409;52.168;20.878;2023-04-06T12:45:21;100729.08;;;2.41;66.47
50484;BME280;36409;52.168;20.878;2023-04-06T12:47:51;100720.48;;;2.42;67.10
50484;BME280;36409;52.168;20.878;2023-04-06T12:50:20;100723.92;;;2.41;67.13
50484;BME280;36409;52.168;20.878;2023-04-06T12:52:49;100720.46;;;2.41;67.54
50484;BME280;36409;52.168;20.878;2023-04-06T12:55:20;100724.70;;;2.39;66.63
50484;BME280;36409;52.168;20.878;2023-04-06T12:57:49;100714.39;;;2.39;67.45
50484;BME280;36409;52.168;20.878;2023-04-06T13:00:21;100710.12;;;2.39;66.61
50484;BME280;36409;52.168;20.878;2023-04-06T13:02:50;100708.41;;;2.40;67.17
50484;BME280;36409;52.168;20.878;2023-04-06T13:05:19;100714.39;;;2.39;66.82
50484;BME280;36409;52.168;20.878;2023-04-06T13:07:48;100710.18;;;2.42;67.22
50484;BME280;36409;52.168;20.878;2023-04-06T13:10:20;100710.27;;;2.45;67.06
50484;BME280;36409;52.168;20.878;2023-04-06T13:12:48;100705.17;;;2.47;67.86
50484;BME280;36409;52.168;20.878;2023-04-06T13:15:18;100705.17;;;2.47;67.35